AAL2351 KORD-KDFW
Flight info
| Callsign | AAL2351 |
|---|---|
| Flight time | 2h 7m |
| Altitude | 40000 |
| Route | ACITO ADELL ARLYN STL FSM KOMMA RRNET BRDJE5 |
| Aircraft | B772/H-SDE2E3FGHIJ5LORVWXY/LB1D1 |
Departure
| Time | 2026-05-06 17:15 |
|---|---|
| Airport | Chicago O'Hare International Airport (KORD) |
Arrival
| Time | 2026-05-06 19:22 |
|---|---|
| Airport | Dallas Fort Worth International Airport (KDFW) |
| Time | Latitude | Longitude | Altitude | Speed | Heading |
|---|---|---|---|---|---|
| 2026-05-06 16:46 | 41.97402 | -87.89784 | 672 ft | 0 kts | 38° |
| 2026-05-06 16:59 | 41.97388 | -87.89800 | 671 ft | 4 kts | 56° |
| 2026-05-06 17:00 | 41.97379 | -87.89832 | 671 ft | 4 kts | 98° |
| 2026-05-06 17:00 | 41.97389 | -87.89861 | 671 ft | 4 kts | 141° |
| 2026-05-06 17:00 | 41.97386 | -87.89860 | 671 ft | 4 kts | 146° |
| 2026-05-06 17:00 | 41.97365 | -87.89840 | 672 ft | 2 kts | 146° |
| 2026-05-06 17:01 | 41.97363 | -87.89838 | 672 ft | 0 kts | 146° |
| 2026-05-06 17:04 | 41.97347 | -87.89824 | 673 ft | 5 kts | 146° |
| 2026-05-06 17:05 | 41.97310 | -87.89792 | 673 ft | 8 kts | 149° |
| 2026-05-06 17:05 | 41.97297 | -87.89784 | 673 ft | 0 kts | 157° |
| 2026-05-06 17:05 | 41.97290 | -87.89781 | 673 ft | 4 kts | 161° |
| 2026-05-06 17:05 | 41.97284 | -87.89778 | 673 ft | 0 kts | 165° |
| 2026-05-06 17:06 | 41.97278 | -87.89776 | 673 ft | 0 kts | 166° |
| 2026-05-06 17:06 | 41.97267 | -87.89776 | 673 ft | 5 kts | 183° |
| 2026-05-06 17:07 | 41.97224 | -87.89836 | 673 ft | 13 kts | 246° |
| 2026-05-06 17:07 | 41.97206 | -87.89960 | 673 ft | 12 kts | 268° |
| 2026-05-06 17:07 | 41.97204 | -87.90052 | 673 ft | 12 kts | 269° |
| 2026-05-06 17:07 | 41.97203 | -87.90101 | 672 ft | 6 kts | 265° |
| 2026-05-06 17:08 | 41.97192 | -87.90136 | 673 ft | 3 kts | 233° |
| 2026-05-06 17:08 | 41.97147 | -87.90163 | 672 ft | 10 kts | 182° |
| 2026-05-06 17:08 | 41.97104 | -87.90150 | 673 ft | 0 kts | 164° |
| 2026-05-06 17:09 | 41.97102 | -87.90149 | 673 ft | 0 kts | 165° |
| 2026-05-06 17:09 | 41.97101 | -87.90148 | 673 ft | 0 kts | 165° |
| 2026-05-06 17:10 | 41.97100 | -87.90148 | 673 ft | 1 kts | 165° |
| 2026-05-06 17:10 | 41.97088 | -87.90144 | 673 ft | 0 kts | 165° |
| 2026-05-06 17:11 | 41.97086 | -87.90143 | 673 ft | 3 kts | 165° |
| 2026-05-06 17:11 | 41.97046 | -87.90115 | 673 ft | 9 kts | 141° |
| 2026-05-06 17:11 | 41.97021 | -87.90029 | 674 ft | 12 kts | 89° |
| 2026-05-06 17:11 | 41.97039 | -87.89918 | 674 ft | 17 kts | 83° |
| 2026-05-06 17:12 | 41.97041 | -87.89775 | 674 ft | 17 kts | 90° |
| 2026-05-06 17:12 | 41.97041 | -87.89624 | 674 ft | 19 kts | 90° |
| 2026-05-06 17:12 | 41.97041 | -87.89413 | 674 ft | 13 kts | 90° |
| 2026-05-06 17:12 | 41.97042 | -87.89309 | 673 ft | 16 kts | 90° |
| 2026-05-06 17:13 | 41.97041 | -87.89139 | 673 ft | 5 kts | 90° |
| 2026-05-06 17:13 | 41.97020 | -87.89084 | 672 ft | 10 kts | 143° |
| 2026-05-06 17:13 | 41.97012 | -87.89079 | 673 ft | 1 kts | 159° |
| 2026-05-06 17:13 | 41.96972 | -87.89065 | 673 ft | 8 kts | 176° |
| 2026-05-06 17:14 | 41.96913 | -87.89115 | 671 ft | 10 kts | 246° |
| 2026-05-06 17:14 | 41.96907 | -87.89167 | 673 ft | 3 kts | 267° |
| 2026-05-06 17:14 | 41.96906 | -87.89191 | 673 ft | 0 kts | 268° |
| 2026-05-06 17:14 | 41.96905 | -87.89248 | 673 ft | 21 kts | 269° |
| 2026-05-06 17:15 | 41.96904 | -87.89771 | 676 ft | 95 kts | 269° |
| 2026-05-06 17:15 | 41.96891 | -87.90920 | 958 ft | 133 kts | 268° |
| 2026-05-06 17:15 | 41.96877 | -87.92164 | 1812 ft | 136 kts | 270° |
| 2026-05-06 17:15 | 41.96879 | -87.93442 | 2718 ft | 137 kts | 272° |
| 2026-05-06 17:16 | 41.96830 | -87.94708 | 3321 ft | 142 kts | 255° |
| 2026-05-06 17:16 | 41.96242 | -87.95849 | 3724 ft | 161 kts | 220° |
| 2026-05-06 17:16 | 41.95203 | -87.96492 | 4270 ft | 171 kts | 200° |
| 2026-05-06 17:16 | 41.93974 | -87.96968 | 4496 ft | 198 kts | 201° |
| 2026-05-06 17:17 | 41.92562 | -87.97541 | 4723 ft | 226 kts | 201° |
| 2026-05-06 17:17 | 41.90967 | -87.98185 | 5016 ft | 251 kts | 200° |
| 2026-05-06 17:17 | 41.89280 | -87.98853 | 5677 ft | 260 kts | 200° |
| 2026-05-06 17:17 | 41.87531 | -87.99541 | 6467 ft | 265 kts | 200° |
| 2026-05-06 17:18 | 41.85753 | -88.00242 | 6960 ft | 269 kts | 200° |
| 2026-05-06 17:18 | 41.83944 | -88.00956 | 7540 ft | 273 kts | 200° |
| 2026-05-06 17:18 | 41.82119 | -88.01677 | 8427 ft | 273 kts | 200° |
| 2026-05-06 17:18 | 41.80287 | -88.02400 | 9304 ft | 276 kts | 201° |
| 2026-05-06 17:19 | 41.78438 | -88.03131 | 10099 ft | 279 kts | 201° |
| 2026-05-06 17:19 | 41.76535 | -88.03888 | 10492 ft | 296 kts | 201° |
| 2026-05-06 17:19 | 41.74471 | -88.04713 | 10668 ft | 323 kts | 201° |
| 2026-05-06 17:19 | 41.72234 | -88.05605 | 10988 ft | 345 kts | 201° |
| 2026-05-06 17:20 | 41.69928 | -88.06515 | 11773 ft | 355 kts | 201° |
| 2026-05-06 17:20 | 41.67537 | -88.07453 | 12868 ft | 360 kts | 201° |
| 2026-05-06 17:20 | 41.65131 | -88.08396 | 14099 ft | 361 kts | 202° |
| 2026-05-06 17:20 | 41.62714 | -88.09345 | 15235 ft | 363 kts | 202° |
| 2026-05-06 17:21 | 41.60269 | -88.10306 | 16269 ft | 368 kts | 203° |
| 2026-05-06 17:21 | 41.57797 | -88.11280 | 17317 ft | 373 kts | 203° |
| 2026-05-06 17:21 | 41.55293 | -88.12266 | 18384 ft | 377 kts | 204° |
| 2026-05-06 17:21 | 41.52768 | -88.13259 | 19363 ft | 379 kts | 203° |
| 2026-05-06 17:22 | 41.50237 | -88.14251 | 20434 ft | 379 kts | 203° |
| 2026-05-06 17:22 | 41.47732 | -88.15232 | 21412 ft | 382 kts | 203° |
| 2026-05-06 17:22 | 41.45175 | -88.16235 | 22402 ft | 385 kts | 204° |
| 2026-05-06 17:22 | 41.42588 | -88.17250 | 23339 ft | 389 kts | 204° |
| 2026-05-06 17:23 | 41.39983 | -88.18270 | 24117 ft | 392 kts | 204° |
| 2026-05-06 17:23 | 41.37381 | -88.19357 | 24833 ft | 392 kts | 207° |
| 2026-05-06 17:23 | 41.34798 | -88.20538 | 25562 ft | 393 kts | 208° |
| 2026-05-06 17:23 | 41.32205 | -88.21741 | 26223 ft | 395 kts | 209° |
| 2026-05-06 17:24 | 41.29597 | -88.22935 | 26886 ft | 398 kts | 209° |
| 2026-05-06 17:24 | 41.26973 | -88.24119 | 27546 ft | 399 kts | 210° |
| 2026-05-06 17:24 | 41.24367 | -88.25289 | 28128 ft | 402 kts | 210° |
| 2026-05-06 17:24 | 41.21711 | -88.26488 | 28677 ft | 404 kts | 210° |
| 2026-05-06 17:25 | 41.19046 | -88.27695 | 29230 ft | 405 kts | 211° |
| 2026-05-06 17:25 | 41.16372 | -88.28907 | 29755 ft | 407 kts | 211° |
| 2026-05-06 17:25 | 41.13690 | -88.30121 | 30192 ft | 408 kts | 211° |
| 2026-05-06 17:25 | 41.10997 | -88.31339 | 30480 ft | 410 kts | 212° |
| 2026-05-06 17:26 | 41.08301 | -88.32554 | 30887 ft | 409 kts | 212° |
| 2026-05-06 17:26 | 41.05637 | -88.33755 | 31184 ft | 410 kts | 212° |
| 2026-05-06 17:26 | 41.02928 | -88.34978 | 31408 ft | 413 kts | 213° |
| 2026-05-06 17:26 | 41.00202 | -88.36209 | 31600 ft | 415 kts | 213° |
| 2026-05-06 17:27 | 40.97461 | -88.37444 | 31801 ft | 417 kts | 213° |
| 2026-05-06 17:27 | 40.94709 | -88.38680 | 32060 ft | 417 kts | 213° |
| 2026-05-06 17:27 | 40.91963 | -88.39909 | 32376 ft | 416 kts | 213° |
| 2026-05-06 17:27 | 40.89228 | -88.41130 | 32660 ft | 414 kts | 213° |
| 2026-05-06 17:28 | 40.86502 | -88.42348 | 33022 ft | 412 kts | 213° |
| 2026-05-06 17:28 | 40.83793 | -88.43558 | 33350 ft | 411 kts | 213° |
| 2026-05-06 17:28 | 40.81091 | -88.44768 | 33637 ft | 410 kts | 214° |
| 2026-05-06 17:28 | 40.78428 | -88.45960 | 33935 ft | 410 kts | 214° |
| 2026-05-06 17:29 | 40.75733 | -88.47165 | 34203 ft | 409 kts | 214° |
| 2026-05-06 17:29 | 40.73035 | -88.48371 | 34461 ft | 409 kts | 214° |
| 2026-05-06 17:29 | 40.70336 | -88.49577 | 34658 ft | 410 kts | 213° |
| 2026-05-06 17:29 | 40.67628 | -88.50786 | 34855 ft | 412 kts | 213° |
| 2026-05-06 17:30 | 40.64913 | -88.51996 | 35073 ft | 412 kts | 213° |
| 2026-05-06 17:30 | 40.62189 | -88.53208 | 35315 ft | 413 kts | 213° |
| 2026-05-06 17:30 | 40.59464 | -88.54419 | 35526 ft | 414 kts | 213° |
| 2026-05-06 17:30 | 40.56732 | -88.55632 | 35735 ft | 415 kts | 213° |
| 2026-05-06 17:31 | 40.54026 | -88.56833 | 35953 ft | 416 kts | 213° |
| 2026-05-06 17:31 | 40.51288 | -88.58047 | 36184 ft | 417 kts | 213° |
| 2026-05-06 17:31 | 40.48534 | -88.59266 | 36386 ft | 418 kts | 212° |
| 2026-05-06 17:31 | 40.45781 | -88.60484 | 36548 ft | 418 kts | 213° |
| 2026-05-06 17:32 | 40.43031 | -88.61698 | 36878 ft | 416 kts | 213° |
| 2026-05-06 17:32 | 40.40289 | -88.62909 | 37099 ft | 417 kts | 213° |
| 2026-05-06 17:32 | 40.37539 | -88.64126 | 37276 ft | 418 kts | 213° |
| 2026-05-06 17:32 | 40.34891 | -88.65550 | 37464 ft | 405 kts | 220° |
| 2026-05-06 17:33 | 40.32469 | -88.67357 | 37680 ft | 397 kts | 224° |
| 2026-05-06 17:33 | 40.30200 | -88.69303 | 37905 ft | 394 kts | 226° |
| 2026-05-06 17:33 | 40.28016 | -88.71427 | 38098 ft | 388 kts | 230° |
| 2026-05-06 17:33 | 40.26066 | -88.73813 | 38310 ft | 383 kts | 233° |
| 2026-05-06 17:34 | 40.24169 | -88.76255 | 38474 ft | 382 kts | 234° |
| 2026-05-06 17:34 | 40.22290 | -88.78681 | 38890 ft | 378 kts | 234° |
| 2026-05-06 17:34 | 40.20418 | -88.81101 | 38988 ft | 380 kts | 234° |
| 2026-05-06 17:35 | 40.16631 | -88.85980 | 39246 ft | 383 kts | 233° |
| 2026-05-06 17:35 | 40.14749 | -88.88393 | 39381 ft | 384 kts | 233° |
| 2026-05-06 17:35 | 40.12836 | -88.90837 | 39530 ft | 385 kts | 233° |
| 2026-05-06 17:36 | 40.08997 | -88.95731 | 39833 ft | 387 kts | 233° |
| 2026-05-06 17:36 | 40.07065 | -88.98190 | 39947 ft | 389 kts | 233° |
| 2026-05-06 17:36 | 40.03180 | -89.03129 | 40040 ft | 390 kts | 232° |
| 2026-05-06 17:37 | 39.99325 | -89.08008 | 40042 ft | 381 kts | 233° |
| 2026-05-06 17:37 | 39.95575 | -89.12753 | 40047 ft | 376 kts | 233° |
| 2026-05-06 17:38 | 39.91824 | -89.17502 | 40053 ft | 376 kts | 233° |
| 2026-05-06 17:38 | 39.88058 | -89.22264 | 40058 ft | 378 kts | 233° |
| 2026-05-06 17:39 | 39.84271 | -89.27043 | 40069 ft | 381 kts | 233° |
| 2026-05-06 17:39 | 39.80475 | -89.31822 | 40062 ft | 383 kts | 232° |
| 2026-05-06 17:40 | 39.76646 | -89.36631 | 40055 ft | 383 kts | 233° |
| 2026-05-06 17:40 | 39.72814 | -89.41437 | 40073 ft | 383 kts | 233° |
| 2026-05-06 17:41 | 39.68983 | -89.46235 | 40073 ft | 383 kts | 233° |
| 2026-05-06 17:41 | 39.65174 | -89.50997 | 40080 ft | 383 kts | 232° |
| 2026-05-06 17:42 | 39.61342 | -89.55782 | 40077 ft | 382 kts | 232° |
| 2026-05-06 17:42 | 39.57508 | -89.60560 | 40021 ft | 382 kts | 233° |
| 2026-05-06 17:43 | 39.53695 | -89.65303 | 40066 ft | 379 kts | 233° |
| 2026-05-06 17:43 | 39.49921 | -89.69992 | 40067 ft | 378 kts | 233° |
| 2026-05-06 17:44 | 39.46134 | -89.74690 | 40067 ft | 377 kts | 233° |
| 2026-05-06 17:44 | 39.42352 | -89.79377 | 40067 ft | 376 kts | 233° |
| 2026-05-06 17:45 | 39.39206 | -89.83267 | 40064 ft | 376 kts | 233° |
| 2026-05-06 17:45 | 39.34812 | -89.88694 | 40014 ft | 376 kts | 233° |
| 2026-05-06 17:46 | 39.31038 | -89.93344 | 40051 ft | 374 kts | 233° |
| 2026-05-06 17:46 | 39.27910 | -89.97195 | 40065 ft | 374 kts | 233° |
| 2026-05-06 17:47 | 39.24146 | -90.01824 | 40071 ft | 374 kts | 232° |
| 2026-05-06 17:47 | 39.19761 | -90.07204 | 40075 ft | 374 kts | 232° |
| 2026-05-06 17:48 | 39.15987 | -90.11829 | 40077 ft | 375 kts | 232° |
| 2026-05-06 17:48 | 39.12843 | -90.15675 | 40080 ft | 375 kts | 232° |
| 2026-05-06 17:49 | 39.09070 | -90.20283 | 40071 ft | 373 kts | 232° |
| 2026-05-06 17:49 | 39.04692 | -90.25621 | 40083 ft | 373 kts | 232° |
| 2026-05-06 17:50 | 39.01542 | -90.29458 | 40087 ft | 372 kts | 232° |
| 2026-05-06 17:50 | 38.97804 | -90.34005 | 40093 ft | 372 kts | 232° |
| 2026-05-06 17:51 | 38.94043 | -90.38573 | 40116 ft | 372 kts | 232° |
| 2026-05-06 17:51 | 38.89661 | -90.43888 | 40097 ft | 373 kts | 232° |
| 2026-05-06 17:52 | 38.86503 | -90.47708 | 40084 ft | 372 kts | 232° |
| 2026-05-06 17:52 | 38.82719 | -90.52172 | 40091 ft | 372 kts | 231° |
| 2026-05-06 17:53 | 38.78867 | -90.56623 | 40089 ft | 372 kts | 231° |
| 2026-05-06 17:53 | 38.75019 | -90.61065 | 40085 ft | 372 kts | 231° |
| 2026-05-06 17:54 | 38.71173 | -90.65511 | 40082 ft | 372 kts | 231° |
| 2026-05-06 17:54 | 38.67357 | -90.69921 | 40086 ft | 372 kts | 231° |
| 2026-05-06 17:55 | 38.63511 | -90.74359 | 40080 ft | 371 kts | 231° |
| 2026-05-06 17:55 | 38.59678 | -90.78777 | 40096 ft | 371 kts | 231° |
| 2026-05-06 17:56 | 38.55844 | -90.83191 | 40089 ft | 371 kts | 231° |
| 2026-05-06 17:56 | 38.52038 | -90.87565 | 40087 ft | 371 kts | 231° |
| 2026-05-06 17:57 | 38.48207 | -90.91961 | 40088 ft | 370 kts | 231° |
| 2026-05-06 17:57 | 38.44370 | -90.96358 | 40099 ft | 371 kts | 231° |
| 2026-05-06 17:58 | 38.40534 | -91.00748 | 40097 ft | 371 kts | 231° |
| 2026-05-06 17:58 | 38.36692 | -91.05137 | 40128 ft | 371 kts | 231° |
| 2026-05-06 17:59 | 38.32877 | -91.09489 | 40134 ft | 371 kts | 231° |
| 2026-05-06 17:59 | 38.29029 | -91.13872 | 40139 ft | 371 kts | 231° |
| 2026-05-06 18:00 | 38.25181 | -91.18249 | 40137 ft | 371 kts | 231° |
| 2026-05-06 18:00 | 38.21326 | -91.22627 | 40138 ft | 371 kts | 231° |
| 2026-05-06 18:01 | 38.17499 | -91.26967 | 40095 ft | 371 kts | 231° |
| 2026-05-06 18:01 | 38.13651 | -91.31323 | 40128 ft | 370 kts | 231° |
| 2026-05-06 18:02 | 38.09800 | -91.35678 | 40106 ft | 371 kts | 231° |
| 2026-05-06 18:02 | 38.05950 | -91.40024 | 40121 ft | 371 kts | 231° |
| 2026-05-06 18:03 | 38.02120 | -91.44343 | 40108 ft | 371 kts | 231° |
| 2026-05-06 18:03 | 37.98263 | -91.48684 | 40099 ft | 371 kts | 231° |
| 2026-05-06 18:04 | 37.94403 | -91.53024 | 40066 ft | 371 kts | 231° |
| 2026-05-06 18:04 | 37.90547 | -91.57351 | 40099 ft | 370 kts | 231° |
| 2026-05-06 18:05 | 37.86715 | -91.61646 | 40102 ft | 370 kts | 231° |
| 2026-05-06 18:05 | 37.82861 | -91.65958 | 40106 ft | 370 kts | 231° |
| 2026-05-06 18:06 | 37.79004 | -91.70269 | 40101 ft | 370 kts | 231° |
| 2026-05-06 18:06 | 37.75149 | -91.74571 | 40104 ft | 370 kts | 231° |
| 2026-05-06 18:07 | 37.71314 | -91.78846 | 40102 ft | 370 kts | 231° |
| 2026-05-06 18:07 | 37.67457 | -91.83137 | 40081 ft | 369 kts | 230° |
| 2026-05-06 18:08 | 37.63603 | -91.87420 | 40097 ft | 369 kts | 230° |
| 2026-05-06 18:08 | 37.59746 | -91.91700 | 40107 ft | 370 kts | 230° |
| 2026-05-06 18:09 | 37.55880 | -91.95983 | 40092 ft | 370 kts | 230° |
| 2026-05-06 18:09 | 37.52033 | -92.00239 | 40096 ft | 370 kts | 230° |
| 2026-05-06 18:10 | 37.48162 | -92.04515 | 40090 ft | 370 kts | 230° |
| 2026-05-06 18:10 | 37.44289 | -92.08786 | 40065 ft | 369 kts | 230° |
| 2026-05-06 18:11 | 37.40426 | -92.13043 | 40090 ft | 370 kts | 230° |
| 2026-05-06 18:11 | 37.36554 | -92.17302 | 40095 ft | 370 kts | 230° |
| 2026-05-06 18:12 | 37.32708 | -92.21527 | 40089 ft | 370 kts | 230° |
| 2026-05-06 18:12 | 37.28833 | -92.25778 | 40097 ft | 370 kts | 230° |
| 2026-05-06 18:13 | 37.24948 | -92.30034 | 40117 ft | 371 kts | 230° |
| 2026-05-06 18:13 | 37.21059 | -92.34288 | 40037 ft | 371 kts | 230° |
| 2026-05-06 18:14 | 37.17199 | -92.38501 | 40086 ft | 369 kts | 230° |
| 2026-05-06 18:14 | 37.13324 | -92.42727 | 40098 ft | 369 kts | 230° |
| 2026-05-06 18:15 | 37.09443 | -92.46955 | 40102 ft | 370 kts | 230° |
| 2026-05-06 18:15 | 37.05559 | -92.51180 | 40105 ft | 370 kts | 230° |
| 2026-05-06 18:16 | 37.01691 | -92.55381 | 40095 ft | 371 kts | 230° |
| 2026-05-06 18:16 | 36.97797 | -92.59605 | 40100 ft | 371 kts | 230° |
| 2026-05-06 18:17 | 36.93898 | -92.63827 | 40091 ft | 370 kts | 230° |
| 2026-05-06 18:17 | 36.90003 | -92.68039 | 40102 ft | 370 kts | 230° |
| 2026-05-06 18:18 | 36.86130 | -92.72222 | 40096 ft | 371 kts | 230° |
| 2026-05-06 18:18 | 36.82224 | -92.76436 | 40098 ft | 371 kts | 230° |
| 2026-05-06 18:19 | 36.78319 | -92.80641 | 40101 ft | 371 kts | 230° |
| 2026-05-06 18:19 | 36.74410 | -92.84845 | 40100 ft | 371 kts | 230° |
| 2026-05-06 18:20 | 36.70506 | -92.89038 | 40063 ft | 371 kts | 230° |
| 2026-05-06 18:20 | 36.66628 | -92.93196 | 40094 ft | 370 kts | 230° |
| 2026-05-06 18:21 | 36.62723 | -92.97380 | 40112 ft | 371 kts | 230° |
| 2026-05-06 18:21 | 36.58809 | -93.01566 | 40117 ft | 371 kts | 230° |
| 2026-05-06 18:22 | 36.54894 | -93.05747 | 40149 ft | 371 kts | 229° |
| 2026-05-06 18:22 | 36.50974 | -93.09926 | 40150 ft | 371 kts | 229° |
| 2026-05-06 18:23 | 36.47075 | -93.14076 | 40132 ft | 371 kts | 229° |
| 2026-05-06 18:23 | 36.43160 | -93.18242 | 40129 ft | 370 kts | 229° |
| 2026-05-06 18:24 | 36.39244 | -93.22403 | 40131 ft | 370 kts | 229° |
| 2026-05-06 18:24 | 36.35329 | -93.26557 | 40117 ft | 371 kts | 229° |
| 2026-05-06 18:25 | 36.31403 | -93.30716 | 40113 ft | 371 kts | 229° |
| 2026-05-06 18:25 | 36.27504 | -93.34840 | 40115 ft | 371 kts | 229° |
| 2026-05-06 18:26 | 36.23573 | -93.38992 | 40110 ft | 371 kts | 229° |
| 2026-05-06 18:26 | 36.19642 | -93.43139 | 40058 ft | 371 kts | 229° |
| 2026-05-06 18:27 | 36.15717 | -93.47272 | 40106 ft | 370 kts | 229° |
| 2026-05-06 18:27 | 36.11821 | -93.51372 | 40108 ft | 371 kts | 229° |
| 2026-05-06 18:28 | 36.07888 | -93.55506 | 40109 ft | 372 kts | 229° |
| 2026-05-06 18:28 | 36.03939 | -93.59651 | 40110 ft | 373 kts | 229° |
| 2026-05-06 18:29 | 35.99983 | -93.63795 | 40109 ft | 373 kts | 229° |
| 2026-05-06 18:29 | 35.96049 | -93.67909 | 40107 ft | 373 kts | 229° |
| 2026-05-06 18:30 | 35.92094 | -93.72041 | 40105 ft | 372 kts | 229° |
| 2026-05-06 18:30 | 35.88138 | -93.76170 | 40106 ft | 372 kts | 229° |
| 2026-05-06 18:31 | 35.84180 | -93.80297 | 40104 ft | 373 kts | 229° |
| 2026-05-06 18:31 | 35.80212 | -93.84426 | 40091 ft | 373 kts | 229° |
| 2026-05-06 18:32 | 35.76279 | -93.88511 | 40101 ft | 372 kts | 229° |
| 2026-05-06 18:32 | 35.72319 | -93.92622 | 40083 ft | 373 kts | 229° |
| 2026-05-06 18:33 | 35.68359 | -93.96725 | 40041 ft | 371 kts | 229° |
| 2026-05-06 18:33 | 35.64416 | -94.00807 | 40081 ft | 371 kts | 229° |
| 2026-05-06 18:34 | 35.60493 | -94.04864 | 40097 ft | 371 kts | 229° |
| 2026-05-06 18:34 | 35.56532 | -94.08955 | 40088 ft | 372 kts | 229° |
| 2026-05-06 18:35 | 35.52563 | -94.13047 | 40085 ft | 373 kts | 229° |
| 2026-05-06 18:35 | 35.48589 | -94.17139 | 40089 ft | 373 kts | 229° |
| 2026-05-06 18:36 | 35.44633 | -94.21209 | 40095 ft | 374 kts | 229° |
| 2026-05-06 18:36 | 35.40648 | -94.25302 | 40077 ft | 373 kts | 228° |
| 2026-05-06 18:37 | 35.36704 | -94.29423 | 40088 ft | 372 kts | 230° |
| 2026-05-06 18:37 | 35.32856 | -94.33652 | 40094 ft | 371 kts | 230° |
| 2026-05-06 18:38 | 35.29011 | -94.37884 | 40092 ft | 372 kts | 230° |
| 2026-05-06 18:38 | 35.25176 | -94.42079 | 40093 ft | 372 kts | 230° |
| 2026-05-06 18:39 | 35.21312 | -94.46292 | 40090 ft | 372 kts | 230° |
| 2026-05-06 18:40 | 35.15505 | -94.52610 | 40057 ft | 372 kts | 230° |
| 2026-05-06 18:40 | 35.11665 | -94.56780 | 40094 ft | 372 kts | 230° |
| 2026-05-06 18:41 | 35.07796 | -94.60979 | 40103 ft | 372 kts | 229° |
| 2026-05-06 18:41 | 35.03926 | -94.65172 | 40104 ft | 372 kts | 229° |
| 2026-05-06 18:42 | 35.00043 | -94.69357 | 40083 ft | 373 kts | 229° |
| 2026-05-06 18:42 | 34.96127 | -94.73499 | 40095 ft | 373 kts | 229° |
| 2026-05-06 18:43 | 34.92230 | -94.77611 | 40090 ft | 373 kts | 229° |
| 2026-05-06 18:43 | 34.88314 | -94.81747 | 40076 ft | 372 kts | 229° |
| 2026-05-06 18:44 | 34.84397 | -94.85882 | 40083 ft | 373 kts | 229° |
| 2026-05-06 18:44 | 34.80490 | -94.89973 | 40086 ft | 374 kts | 228° |
| 2026-05-06 18:45 | 34.76507 | -94.94042 | 40081 ft | 374 kts | 228° |
| 2026-05-06 18:45 | 34.72509 | -94.98114 | 40087 ft | 375 kts | 228° |
| 2026-05-06 18:46 | 34.68514 | -95.02186 | 40078 ft | 375 kts | 228° |
| 2026-05-06 18:46 | 34.64545 | -95.06232 | 40092 ft | 375 kts | 228° |
| 2026-05-06 18:47 | 34.60554 | -95.10297 | 40061 ft | 374 kts | 228° |
| 2026-05-06 18:47 | 34.56567 | -95.14353 | 40074 ft | 375 kts | 228° |
| 2026-05-06 18:48 | 34.52568 | -95.18416 | 40080 ft | 375 kts | 228° |
| 2026-05-06 18:48 | 34.48567 | -95.22475 | 40073 ft | 375 kts | 228° |
| 2026-05-06 18:49 | 34.44581 | -95.26506 | 40073 ft | 376 kts | 227° |
| 2026-05-06 18:49 | 34.40565 | -95.30551 | 40067 ft | 376 kts | 227° |
| 2026-05-06 18:50 | 34.36544 | -95.34598 | 40077 ft | 376 kts | 227° |
| 2026-05-06 18:50 | 34.32529 | -95.38635 | 40060 ft | 375 kts | 227° |
| 2026-05-06 18:51 | 34.28535 | -95.42647 | 40051 ft | 376 kts | 227° |
| 2026-05-06 18:51 | 34.24508 | -95.46689 | 40049 ft | 376 kts | 227° |
| 2026-05-06 18:52 | 34.20474 | -95.50729 | 40036 ft | 377 kts | 227° |
| 2026-05-06 18:52 | 34.16431 | -95.54766 | 39826 ft | 379 kts | 227° |
| 2026-05-06 18:52 | 34.14401 | -95.56793 | 39452 ft | 377 kts | 227° |
| 2026-05-06 18:53 | 34.12413 | -95.58773 | 39112 ft | 373 kts | 227° |
| 2026-05-06 18:53 | 34.10422 | -95.60756 | 38772 ft | 370 kts | 227° |
| 2026-05-06 18:53 | 34.08445 | -95.62726 | 38360 ft | 368 kts | 227° |
| 2026-05-06 18:53 | 34.06476 | -95.64689 | 37970 ft | 367 kts | 227° |
| 2026-05-06 18:54 | 34.04498 | -95.66663 | 37588 ft | 372 kts | 227° |
| 2026-05-06 18:54 | 34.02491 | -95.68667 | 37202 ft | 377 kts | 226° |
| 2026-05-06 18:54 | 34.00467 | -95.70683 | 36823 ft | 378 kts | 226° |
| 2026-05-06 18:54 | 33.98436 | -95.72702 | 36458 ft | 378 kts | 226° |
| 2026-05-06 18:55 | 33.96436 | -95.74688 | 36087 ft | 378 kts | 226° |
| 2026-05-06 18:55 | 33.94409 | -95.76700 | 35736 ft | 377 kts | 225° |
| 2026-05-06 18:55 | 33.92386 | -95.78708 | 35374 ft | 377 kts | 225° |
| 2026-05-06 18:55 | 33.90364 | -95.80714 | 35027 ft | 377 kts | 225° |
| 2026-05-06 18:56 | 33.88338 | -95.82722 | 34677 ft | 377 kts | 225° |
| 2026-05-06 18:56 | 33.86314 | -95.84729 | 34331 ft | 377 kts | 224° |
| 2026-05-06 18:56 | 33.84286 | -95.86738 | 33976 ft | 378 kts | 224° |
| 2026-05-06 18:56 | 33.82251 | -95.88752 | 33591 ft | 380 kts | 224° |
| 2026-05-06 18:57 | 33.80230 | -95.90753 | 33176 ft | 386 kts | 224° |
| 2026-05-06 18:57 | 33.78138 | -95.92824 | 32808 ft | 394 kts | 224° |
| 2026-05-06 18:57 | 33.76003 | -95.94932 | 32428 ft | 397 kts | 224° |
| 2026-05-06 18:57 | 33.73877 | -95.97028 | 32051 ft | 394 kts | 224° |
| 2026-05-06 18:58 | 33.71756 | -95.99118 | 31690 ft | 393 kts | 225° |
| 2026-05-06 18:58 | 33.69645 | -96.01199 | 31335 ft | 392 kts | 225° |
| 2026-05-06 18:58 | 33.67539 | -96.03277 | 30977 ft | 392 kts | 225° |
| 2026-05-06 18:58 | 33.65460 | -96.05326 | 30633 ft | 391 kts | 225° |
| 2026-05-06 18:59 | 33.63362 | -96.07393 | 30286 ft | 391 kts | 225° |
| 2026-05-06 18:59 | 33.61260 | -96.09463 | 29936 ft | 390 kts | 225° |
| 2026-05-06 18:59 | 33.59166 | -96.11524 | 29523 ft | 389 kts | 225° |
| 2026-05-06 18:59 | 33.57078 | -96.13577 | 29118 ft | 388 kts | 225° |
| 2026-05-06 19:00 | 33.54998 | -96.15621 | 28726 ft | 386 kts | 225° |
| 2026-05-06 19:00 | 33.52923 | -96.17659 | 28303 ft | 384 kts | 225° |
| 2026-05-06 19:00 | 33.50860 | -96.19684 | 27889 ft | 383 kts | 225° |
| 2026-05-06 19:00 | 33.48805 | -96.21701 | 27513 ft | 381 kts | 225° |
| 2026-05-06 19:01 | 33.46783 | -96.23682 | 27089 ft | 381 kts | 225° |
| 2026-05-06 19:01 | 33.44739 | -96.25703 | 26555 ft | 380 kts | 226° |
| 2026-05-06 19:01 | 33.42904 | -96.27922 | 25997 ft | 370 kts | 233° |
| 2026-05-06 19:01 | 33.41268 | -96.30260 | 25454 ft | 364 kts | 233° |
| 2026-05-06 19:02 | 33.39650 | -96.32579 | 24926 ft | 363 kts | 233° |
| 2026-05-06 19:02 | 33.38019 | -96.34881 | 24401 ft | 363 kts | 233° |
| 2026-05-06 19:02 | 33.36373 | -96.37169 | 23893 ft | 362 kts | 232° |
| 2026-05-06 19:02 | 33.34960 | -96.39118 | 23427 ft | 362 kts | 232° |
| 2026-05-06 19:03 | 33.34824 | -96.39305 | 23390 ft | 362 kts | 232° |
| 2026-05-06 19:03 | 33.33175 | -96.41571 | 22771 ft | 361 kts | 232° |
| 2026-05-06 19:04 | 33.31540 | -96.43834 | 22178 ft | 359 kts | 232° |
| 2026-05-06 19:04 | 33.29930 | -96.46095 | 21591 ft | 356 kts | 232° |
| 2026-05-06 19:04 | 33.28333 | -96.48338 | 21022 ft | 353 kts | 232° |
| 2026-05-06 19:04 | 33.26741 | -96.50552 | 20470 ft | 350 kts | 231° |
| 2026-05-06 19:05 | 33.25137 | -96.52680 | 19939 ft | 348 kts | 231° |
| 2026-05-06 19:05 | 33.23512 | -96.54803 | 19387 ft | 345 kts | 230° |
| 2026-05-06 19:05 | 33.21901 | -96.56915 | 18846 ft | 343 kts | 230° |
| 2026-05-06 19:05 | 33.20303 | -96.59018 | 18326 ft | 341 kts | 230° |
| 2026-05-06 19:06 | 33.18716 | -96.61110 | 17719 ft | 339 kts | 230° |
| 2026-05-06 19:06 | 33.17147 | -96.63203 | 17152 ft | 338 kts | 231° |
| 2026-05-06 19:06 | 33.15608 | -96.65313 | 16627 ft | 335 kts | 231° |
| 2026-05-06 19:06 | 33.14086 | -96.67412 | 16135 ft | 334 kts | 231° |
| 2026-05-06 19:07 | 33.12568 | -96.69502 | 15637 ft | 333 kts | 230° |
| 2026-05-06 19:07 | 33.11071 | -96.71559 | 15183 ft | 333 kts | 230° |
| 2026-05-06 19:07 | 33.09551 | -96.73642 | 14704 ft | 333 kts | 230° |
| 2026-05-06 19:07 | 33.08024 | -96.75730 | 14239 ft | 334 kts | 230° |
| 2026-05-06 19:08 | 33.06494 | -96.77817 | 13778 ft | 335 kts | 229° |
| 2026-05-06 19:08 | 33.04956 | -96.79901 | 13323 ft | 333 kts | 229° |
| 2026-05-06 19:08 | 33.03448 | -96.81942 | 12962 ft | 323 kts | 229° |
| 2026-05-06 19:08 | 33.01983 | -96.83924 | 12640 ft | 313 kts | 229° |
| 2026-05-06 19:09 | 33.00566 | -96.85841 | 12340 ft | 304 kts | 229° |
| 2026-05-06 19:09 | 32.99206 | -96.87679 | 12038 ft | 296 kts | 229° |
| 2026-05-06 19:09 | 32.97742 | -96.89289 | 11710 ft | 284 kts | 214° |
| 2026-05-06 19:09 | 32.95949 | -96.90237 | 11408 ft | 282 kts | 200° |
| 2026-05-06 19:10 | 32.94022 | -96.90640 | 11106 ft | 281 kts | 189° |
| 2026-05-06 19:10 | 32.92078 | -96.90780 | 10825 ft | 279 kts | 187° |
| 2026-05-06 19:10 | 32.90135 | -96.90879 | 10535 ft | 280 kts | 187° |
| 2026-05-06 19:10 | 32.88189 | -96.90984 | 10302 ft | 280 kts | 187° |
| 2026-05-06 19:11 | 32.86235 | -96.91107 | 9979 ft | 282 kts | 187° |
| 2026-05-06 19:11 | 32.84337 | -96.91235 | 9584 ft | 271 kts | 187° |
| 2026-05-06 19:11 | 32.82497 | -96.91364 | 9175 ft | 259 kts | 187° |
| 2026-05-06 19:11 | 32.80736 | -96.91490 | 8795 ft | 249 kts | 187° |
| 2026-05-06 19:12 | 32.79040 | -96.91597 | 8417 ft | 240 kts | 186° |
| 2026-05-06 19:12 | 32.77375 | -96.91609 | 8057 ft | 240 kts | 184° |
| 2026-05-06 19:12 | 32.75697 | -96.91600 | 7693 ft | 241 kts | 184° |
| 2026-05-06 19:12 | 32.74012 | -96.91591 | 7342 ft | 243 kts | 184° |
| 2026-05-06 19:13 | 32.72341 | -96.91584 | 7000 ft | 244 kts | 184° |
| 2026-05-06 19:13 | 32.70640 | -96.91579 | 6656 ft | 244 kts | 184° |
| 2026-05-06 19:13 | 32.68975 | -96.91575 | 6263 ft | 235 kts | 184° |
| 2026-05-06 19:13 | 32.67369 | -96.91572 | 5882 ft | 227 kts | 184° |
| 2026-05-06 19:14 | 32.65810 | -96.91572 | 5499 ft | 221 kts | 184° |
| 2026-05-06 19:14 | 32.64294 | -96.91635 | 5120 ft | 213 kts | 195° |
| 2026-05-06 19:14 | 32.63022 | -96.92438 | 4768 ft | 208 kts | 229° |
| 2026-05-06 19:14 | 32.62419 | -96.93944 | 4467 ft | 205 kts | 263° |
| 2026-05-06 19:15 | 32.62496 | -96.95599 | 4137 ft | 203 kts | 277° |
| 2026-05-06 19:15 | 32.62696 | -96.97247 | 3919 ft | 201 kts | 278° |
| 2026-05-06 19:15 | 32.62881 | -96.98886 | 3658 ft | 200 kts | 279° |
| 2026-05-06 19:15 | 32.63048 | -97.00505 | 3412 ft | 194 kts | 286° |
| 2026-05-06 19:16 | 32.63687 | -97.01822 | 3143 ft | 183 kts | 326° |
| 2026-05-06 19:16 | 32.64847 | -97.02284 | 3039 ft | 174 kts | 355° |
| 2026-05-06 19:16 | 32.66050 | -97.02456 | 3039 ft | 176 kts | 354° |
| 2026-05-06 19:16 | 32.67269 | -97.02615 | 3033 ft | 177 kts | 356° |
| 2026-05-06 19:17 | 32.68507 | -97.02685 | 3026 ft | 179 kts | 359° |
| 2026-05-06 19:17 | 32.69706 | -97.02705 | 3034 ft | 168 kts | 1° |
| 2026-05-06 19:17 | 32.70833 | -97.02707 | 3021 ft | 159 kts | 2° |
| 2026-05-06 19:17 | 32.71948 | -97.02703 | 3020 ft | 159 kts | 2° |
| 2026-05-06 19:18 | 32.73046 | -97.02697 | 3025 ft | 157 kts | 2° |
| 2026-05-06 19:18 | 32.74128 | -97.02692 | 3027 ft | 154 kts | 3° |
| 2026-05-06 19:18 | 32.75188 | -97.02686 | 3022 ft | 151 kts | 3° |
| 2026-05-06 19:18 | 32.76260 | -97.02680 | 2925 ft | 158 kts | 3° |
| 2026-05-06 19:19 | 32.77310 | -97.02675 | 2718 ft | 143 kts | 3° |
| 2026-05-06 19:19 | 32.78251 | -97.02671 | 2541 ft | 128 kts | 3° |
| 2026-05-06 19:19 | 32.79109 | -97.02665 | 2372 ft | 124 kts | 2° |
| 2026-05-06 19:19 | 32.79974 | -97.02660 | 2182 ft | 124 kts | 3° |
| 2026-05-06 19:20 | 32.80833 | -97.02655 | 2024 ft | 123 kts | 2° |
| 2026-05-06 19:20 | 32.81689 | -97.02650 | 1834 ft | 125 kts | 2° |
| 2026-05-06 19:20 | 32.82554 | -97.02645 | 1668 ft | 125 kts | 0° |
| 2026-05-06 19:20 | 32.83428 | -97.02640 | 1491 ft | 125 kts | 360° |
| 2026-05-06 19:21 | 32.84290 | -97.02637 | 1321 ft | 122 kts | 359° |
| 2026-05-06 19:21 | 32.85143 | -97.02633 | 1157 ft | 124 kts | 0° |
| 2026-05-06 19:21 | 32.86011 | -97.02628 | 989 ft | 125 kts | 1° |
| 2026-05-06 19:21 | 32.86870 | -97.02624 | 810 ft | 126 kts | 0° |
| 2026-05-06 19:22 | 32.87731 | -97.02622 | 658 ft | 122 kts | 360° |
| 2026-05-06 19:22 | 32.88557 | -97.02618 | 580 ft | 112 kts | 0° |
| 2026-05-06 19:22 | 32.89232 | -97.02612 | 579 ft | 80 kts | 0° |
| 2026-05-06 19:22 | 32.89649 | -97.02608 | 575 ft | 48 kts | 0° |
| 2026-05-06 19:23 | 32.89839 | -97.02633 | 578 ft | 25 kts | 339° |
| 2026-05-06 19:23 | 32.89968 | -97.02707 | 579 ft | 13 kts | 331° |
| 2026-05-06 19:23 | 32.90058 | -97.02767 | 581 ft | 17 kts | 330° |
| 2026-05-06 19:23 | 32.90193 | -97.02801 | 579 ft | 23 kts | 359° |
| 2026-05-06 19:24 | 32.90367 | -97.02803 | 581 ft | 25 kts | 360° |
| 2026-05-06 19:24 | 32.90451 | -97.02821 | 583 ft | 10 kts | 313° |
| 2026-05-06 19:24 | 32.90464 | -97.02935 | 577 ft | 20 kts | 270° |
| 2026-05-06 19:24 | 32.90465 | -97.03126 | 577 ft | 20 kts | 271° |
| 2026-05-06 19:25 | 32.90466 | -97.03238 | 585 ft | 13 kts | 271° |
| 2026-05-06 19:25 | 32.90468 | -97.03338 | 591 ft | 11 kts | 275° |
| 2026-05-06 19:25 | 32.90489 | -97.03412 | 591 ft | 8 kts | 287° |
| 2026-05-06 19:25 | 32.90494 | -97.03459 | 591 ft | 2 kts | 275° |
| 2026-05-06 19:26 | 32.90496 | -97.03479 | 591 ft | 2 kts | 276° |
| 2026-05-06 19:26 | 32.90497 | -97.03492 | 591 ft | 1 kts | 276° |
| 2026-05-06 19:26 | 32.90497 | -97.03496 | 591 ft | 0 kts | 276° |